Time,TemperatureF,DewpointF,PressureIn,WindDirection,WindDirectionDegrees,WindSpeedMPH,WindSpeedGustMPH,Humidity,HourlyPrecipIn,Conditions,Clouds,dailyrainin,SoftwareType,DateUTC
2013-09-30 00:00:00,48.2,47.4,30.10,East,86,0.0,1.0,97,0.00,,,0.00,VWS V14.01,2013-09-30 04:00:00,
2013-09-30 00:01:00,48.2,47.4,30.10,East,86,0.0,1.0,97,0.00,,,0.00,VWS V14.01,2013-09-30 04:01:00,
2013-09-30 00:02:00,48.1,47.3,30.10,East,86,0.0,1.0,97,0.00,,,0.00,VWS V14.01,2013-09-30 04:02:00,
2013-09-30 00:07:00,48.1,47.3,30.10,East,86,0.0,1.0,97,0.00,,,0.00,VWS V14.01,2013-09-30 04:07:00,
2013-09-30 00:12:00,48.1,47.6,30.09,East,86,0.0,1.0,98,0.00,,,0.00,VWS V14.01,2013-09-30 04:12:00,
2013-09-30 00:17:00,47.9,47.1,30.09,East,86,0.0,1.0,97,0.00,,,0.00,VWS V14.01,2013-09-30 04:17:00,
2013-09-30 00:22:00,47.8,47.0,30.09,East,86,0.0,1.0,97,0.00,,,0.00,VWS V14.01,2013-09-30 04:22:00,
2013-09-30 00:27:00,47.8,47.0,30.09,East,86,0.0,2.0,97,0.00,,,0.00,VWS V14.01,2013-09-30 04:27:00,
2013-09-30 00:32:00,47.7,46.9,30.09,East,86,0.0,1.0,97,0.00,,,0.00,VWS V14.01,2013-09-30 04:32:00,
2013-09-30 00:37:00,47.5,46.7,30.09,East,86,0.0,1.0,97,0.00,,,0.00,VWS V14.01,2013-09-30 04:37:00,
2013-09-30 00:42:00,47.4,46.6,30.09,East,86,0.0,1.0,97,0.00,,,0.00,VWS V14.01,2013-09-30 04:42:00,
2013-09-30 00:48:00,47.3,46.5,30.09,East,86,0.0,1.0,97,0.00,,,0.00,VWS V14.01,2013-09-30 04:48:00,
2013-09-30 00:53:00,47.4,46.9,30.09,East,86,0.0,2.0,98,0.00,,,0.00,VWS V14.01,2013-09-30 04:53:00,
2013-09-30 00:58:00,47.5,47.0,30.09,East,86,1.0,2.0,98,0.00,,,0.00,VWS V14.01,2013-09-30 04:58:00,
2013-09-30 01:03:00,47.5,47.0,30.09,East,86,0.0,1.0,98,0.00,,,0.00,VWS V14.01,2013-09-30 05:03:00,
2013-09-30 01:08:00,47.4,46.9,30.09,East,85,1.0,2.0,98,0.00,,,0.00,VWS V14.01,2013-09-30 05:08:00,
2013-09-30 01:13:00,47.3,46.8,30.09,East,86,1.0,2.0,98,0.00,,,0.00,VWS V14.01,2013-09-30 05:13:00,
2013-09-30 01:18:00,47.2,46.7,30.09,East,86,0.0,2.0,98,0.00,,,0.00,VWS V14.01,2013-09-30 05:18:00,
2013-09-30 01:23:00,47.2,46.7,30.09,East,86,0.0,2.0,98,0.00,,,0.00,VWS V14.01,2013-09-30 05:23:00,
2013-09-30 01:28:00,47.1,46.6,30.09,East,86,0.0,2.0,98,0.00,,,0.00,VWS V14.01,2013-09-30 05:28:00,
2013-09-30 01:33:00,47.0,46.5,30.09,East,86,0.0,0.0,98,0.00,,,0.00,VWS V14.01,2013-09-30 05:33:00,
2013-09-30 01:39:00,46.8,46.3,30.09,East,86,0.0,0.0,98,0.00,,,0.00,VWS V14.01,2013-09-30 05:39:00,
2013-09-30 01:44:00,46.8,46.3,30.08,East,86,0.0,1.0,98,0.00,,,0.00,VWS V14.01,2013-09-30 05:44:00,
2013-09-30 01:49:00,46.7,46.2,30.09,East,85,0.0,1.0,98,0.00,,,0.00,VWS V14.01,2013-09-30 05:49:00,
2013-09-30 01:54:00,46.8,46.3,30.09,East,86,0.0,1.0,98,0.00,,,0.00,VWS V14.01,2013-09-30 05:54:00,
2013-09-30 01:59:00,46.7,46.2,30.09,East,86,0.0,1.0,98,0.00,,,0.00,VWS V14.01,2013-09-30 05:59:00,
2013-09-30 02:04:00,46.7,46.2,30.09,East,86,0.0,0.0,98,0.00,,,0.00,VWS V14.01,2013-09-30 06:04:00,
2013-09-30 02:09:00,46.6,46.1,30.09,East,86,0.0,1.0,98,0.00,,,0.00,VWS V14.01,2013-09-30 06:09:00,
2013-09-30 02:14:00,46.5,46.0,30.09,East,86,0.0,1.0,98,0.00,,,0.00,VWS V14.01,2013-09-30 06:14:00,
2013-09-30 02:20:00,46.4,45.9,30.08,East,86,0.0,1.0,98,0.00,,,0.00,VWS V14.01,2013-09-30 06:20:00,
2013-09-30 02:25:00,46.3,45.8,30.08,East,86,0.0,1.0,98,0.00,,,0.00,VWS V14.01,2013-09-30 06:25:00,
2013-09-30 02:30:00,46.4,45.9,30.09,East,86,0.0,1.0,98,0.00,,,0.00,VWS V14.01,2013-09-30 06:30:00,
2013-09-30 02:35:00,46.3,45.8,30.09,East,86,0.0,1.0,98,0.00,,,0.00,VWS V14.01,2013-09-30 06:35:00,
2013-09-30 02:40:00,46.1,45.6,30.08,East,86,0.0,1.0,98,0.00,,,0.00,VWS V14.01,2013-09-30 06:40:00,
2013-09-30 02:45:00,46.0,45.5,30.09,East,86,0.0,1.0,98,0.00,,,0.00,VWS V14.01,2013-09-30 06:45:00,
2013-09-30 02:50:00,45.9,45.4,30.08,East,86,0.0,1.0,98,0.00,,,0.00,VWS V14.01,2013-09-30 06:50:00,
2013-09-30 02:55:00,45.8,45.3,30.08,East,86,0.0,1.0,98,0.00,,,0.00,VWS V14.01,2013-09-30 06:55:00,
2013-09-30 03:00:00,45.7,45.2,30.08,East,86,1.0,1.0,98,0.00,,,0.00,VWS V14.01,2013-09-30 07:00:00,
2013-09-30 03:06:00,45.6,45.1,30.08,East,86,0.0,2.0,98,0.00,,,0.00,VWS V14.01,2013-09-30 07:06:00,
2013-09-30 03:11:00,45.5,45.0,30.08,East,86,0.0,2.0,98,0.00,,,0.00,VWS V14.01,2013-09-30 07:11:00,
2013-09-30 03:16:00,45.5,45.0,30.08,East,86,0.0,2.0,98,0.00,,,0.00,VWS V14.01,2013-09-30 07:16:00,
2013-09-30 03:21:00,45.5,45.0,30.08,East,86,1.0,2.0,98,0.00,,,0.00,VWS V14.01,2013-09-30 07:21:00,
2013-09-30 03:26:00,45.6,45.1,30.08,East,86,1.0,2.0,98,0.00,,,0.00,VWS V14.01,2013-09-30 07:26:00,
2013-09-30 03:31:00,45.7,45.2,30.08,East,85,1.0,2.0,98,0.00,,,0.00,VWS V14.01,2013-09-30 07:31:00,
2013-09-30 03:36:00,45.7,45.2,30.07,East,86,1.0,2.0,98,0.00,,,0.00,VWS V14.01,2013-09-30 07:36:00,
2013-09-30 03:41:00,45.6,45.1,30.07,East,86,0.0,2.0,98,0.00,,,0.00,VWS V14.01,2013-09-30 07:41:00,
2013-09-30 03:47:00,45.5,45.0,30.07,East,86,0.0,2.0,98,0.00,,,0.00,VWS V14.01,2013-09-30 07:47:00,
2013-09-30 03:52:00,45.5,45.0,30.07,East,86,0.0,2.0,98,0.00,,,0.00,VWS V14.01,2013-09-30 07:52:00,
2013-09-30 03:57:00,45.5,45.0,30.07,NNW,343,0.0,2.0,98,0.00,,,0.00,VWS V14.01,2013-09-30 07:57:00,
2013-09-30 04:02:00,45.4,44.9,30.07,NNW,343,0.0,0.0,98,0.00,,,0.00,VWS V14.01,2013-09-30 08:02:00,
2013-09-30 04:07:00,45.3,44.8,30.07,NNW,343,0.0,0.0,98,0.00,,,0.00,VWS V14.01,2013-09-30 08:07:00,
2013-09-30 04:12:00,45.2,44.7,30.07,NNW,343,0.0,0.0,98,0.00,,,0.00,VWS V14.01,2013-09-30 08:12:00,
2013-09-30 04:17:00,45.0,44.5,30.07,NNW,343,0.0,0.0,98,0.00,,,0.00,VWS V14.01,2013-09-30 08:17:00,
2013-09-30 04:22:00,44.9,44.4,30.08,NNW,343,0.0,0.0,98,0.00,,,0.00,VWS V14.01,2013-09-30 08:22:00,
2013-09-30 04:28:00,44.8,44.3,30.07,NNW,343,0.0,0.0,98,0.00,,,0.00,VWS V14.01,2013-09-30 08:28:00,
2013-09-30 04:33:00,44.7,44.2,30.08,NNW,343,0.0,0.0,98,0.00,,,0.00,VWS V14.01,2013-09-30 08:33:00,
2013-09-30 04:38:00,44.5,44.0,30.07,NNW,343,0.0,0.0,98,0.00,,,0.00,VWS V14.01,2013-09-30 08:38:00,
2013-09-30 04:43:00,44.3,43.8,30.08,NNW,343,0.0,0.0,98,0.00,,,0.00,VWS V14.01,2013-09-30 08:43:00,
2013-09-30 04:48:00,44.2,43.7,30.08,NNW,343,0.0,1.0,98,0.00,,,0.00,VWS V14.01,2013-09-30 08:48:00,
2013-09-30 04:53:00,44.2,43.7,30.07,NNW,343,1.0,1.0,98,0.00,,,0.00,VWS V14.01,2013-09-30 08:53:00,
2013-09-30 04:58:00,44.4,43.9,30.07,NNW,343,1.0,2.0,98,0.00,,,0.00,VWS V14.01,2013-09-30 08:58:00,
2013-09-30 05:03:00,44.5,44.0,30.07,NNW,343,0.0,1.0,98,0.00,,,0.00,VWS V14.01,2013-09-30 09:03:00,
2013-09-30 05:08:00,44.5,44.0,30.07,NNW,343,0.0,1.0,98,0.00,,,0.00,VWS V14.01,2013-09-30 09:08:00,
2013-09-30 05:14:00,44.4,43.9,30.07,NNW,343,0.0,1.0,98,0.00,,,0.00,VWS V14.01,2013-09-30 09:14:00,
2013-09-30 05:19:00,44.4,43.9,30.07,NNW,343,0.0,1.0,98,0.00,,,0.00,VWS V14.01,2013-09-30 09:19:00,
2013-09-30 05:24:00,44.3,43.8,30.07,NNW,343,0.0,1.0,98,0.00,,,0.00,VWS V14.01,2013-09-30 09:24:00,
2013-09-30 05:29:00,44.3,43.8,30.07,NNW,343,0.0,1.0,98,0.00,,,0.00,VWS V14.01,2013-09-30 09:29:00,
2013-09-30 05:34:00,44.3,43.8,30.07,NNW,343,0.0,0.0,98,0.00,,,0.00,VWS V14.01,2013-09-30 09:34:00,
2013-09-30 05:39:00,44.2,43.7,30.07,NNW,343,0.0,0.0,98,0.00,,,0.00,VWS V14.01,2013-09-30 09:39:00,
2013-09-30 05:44:00,44.0,43.5,30.07,NNW,343,0.0,0.0,98,0.00,,,0.00,VWS V14.01,2013-09-30 09:44:00,
2013-09-30 05:49:00,43.9,43.4,30.07,NNW,343,0.0,0.0,98,0.00,,,0.00,VWS V14.01,2013-09-30 09:49:00,
2013-09-30 05:55:00,43.8,43.3,30.07,NNW,343,0.0,0.0,98,0.00,,,0.00,VWS V14.01,2013-09-30 09:55:00,
2013-09-30 06:00:00,43.6,43.1,30.08,NNW,343,0.0,0.0,98,0.00,,,0.00,VWS V14.01,2013-09-30 10:00:00,
2013-09-30 06:05:00,43.5,43.0,30.08,NNW,343,0.0,0.0,98,0.00,,,0.00,VWS V14.01,2013-09-30 10:05:00,
2013-09-30 06:10:00,43.5,43.0,30.08,NNW,343,0.0,0.0,98,0.00,,,0.00,VWS V14.01,2013-09-30 10:10:00,
2013-09-30 06:15:00,43.6,43.1,30.08,NNW,343,0.0,0.0,98,0.00,,,0.00,VWS V14.01,2013-09-30 10:15:00,
2013-09-30 06:20:00,43.5,43.0,30.08,NNW,343,0.0,0.0,98,0.00,,,0.00,VWS V14.01,2013-09-30 10:20:00,
2013-09-30 06:25:00,43.5,43.0,30.08,NNW,343,0.0,1.0,98,0.00,,,0.00,VWS V14.01,2013-09-30 10:25:00,
2013-09-30 06:30:00,43.4,42.9,30.08,NNW,343,0.0,0.0,98,0.00,,,0.00,VWS V14.01,2013-09-30 10:30:00,
2013-09-30 06:35:00,43.2,42.7,30.08,NNW,343,0.0,0.0,98,0.00,,,0.00,VWS V14.01,2013-09-30 10:35:00,
2013-09-30 06:41:00,43.1,42.6,30.09,NNW,343,0.0,0.0,98,0.00,,,0.00,VWS V14.01,2013-09-30 10:41:00,
2013-09-30 06:46:00,42.9,42.4,30.09,NNW,343,0.0,0.0,98,0.00,,,0.00,VWS V14.01,2013-09-30 10:46:00,
2013-09-30 06:51:00,42.8,42.3,30.09,NNW,343,0.0,0.0,98,0.00,,,0.00,VWS V14.01,2013-09-30 10:51:00,
2013-09-30 06:56:00,42.7,42.2,30.09,NNW,343,0.0,0.0,98,0.00,,,0.00,VWS V14.01,2013-09-30 10:56:00,
2013-09-30 07:01:00,42.7,42.2,30.09,NNW,343,0.0,0.0,98,0.00,,,0.00,VWS V14.01,2013-09-30 11:01:00,
2013-09-30 07:06:00,42.8,42.3,30.09,NNW,343,0.0,0.0,98,0.00,,,0.00,VWS V14.01,2013-09-30 11:06:00,
2013-09-30 07:11:00,42.9,42.4,30.09,NNW,343,0.0,0.0,98,0.00,,,0.00,VWS V14.01,2013-09-30 11:11:00,
2013-09-30 07:16:00,43.0,42.5,30.09,NNW,343,0.0,0.0,98,0.00,,,0.00,VWS V14.01,2013-09-30 11:16:00,
2013-09-30 07:22:00,43.0,42.5,30.09,NNW,343,0.0,0.0,98,0.00,,,0.00,VWS V14.01,2013-09-30 11:22:00,
2013-09-30 07:27:00,43.1,42.6,30.09,NNW,343,0.0,0.0,98,0.00,,,0.00,VWS V14.01,2013-09-30 11:27:00,
2013-09-30 07:32:00,43.3,43.0,30.09,NNW,343,0.0,0.0,99,0.00,,,0.00,VWS V14.01,2013-09-30 11:32:00,
2013-09-30 07:37:00,43.4,43.1,30.09,NNW,343,0.0,0.0,99,0.00,,,0.00,VWS V14.01,2013-09-30 11:37:00,
2013-09-30 07:42:00,43.6,43.3,30.09,NNW,343,0.0,0.0,99,0.00,,,0.00,VWS V14.01,2013-09-30 11:42:00,
2013-09-30 07:47:00,43.7,43.4,30.08,NNW,343,0.0,0.0,99,0.00,,,0.00,VWS V14.01,2013-09-30 11:47:00,
2013-09-30 07:52:00,43.9,43.6,30.08,NNW,343,0.0,0.0,99,0.00,,,0.00,VWS V14.01,2013-09-30 11:52:00,
2013-09-30 07:57:00,44.1,43.8,30.09,NNW,343,0.0,0.0,99,0.00,,,0.00,VWS V14.01,2013-09-30 11:57:00,
2013-09-30 08:02:00,44.3,44.0,30.09,NNW,343,0.0,0.0,99,0.00,,,0.00,VWS V14.01,2013-09-30 12:02:00,
2013-09-30 08:08:00,44.6,44.3,30.09,NNW,343,0.0,0.0,99,0.00,,,0.00,VWS V14.01,2013-09-30 12:08:00,
2013-09-30 08:13:00,44.9,44.6,30.09,NNW,343,0.0,0.0,99,0.00,,,0.00,VWS V14.01,2013-09-30 12:13:00,
2013-09-30 08:18:00,45.3,45.0,30.09,NNW,343,0.0,0.0,99,0.00,,,0.00,VWS V14.01,2013-09-30 12:18:00,
2013-09-30 08:23:00,45.7,45.4,30.09,NNW,343,0.0,0.0,99,0.00,,,0.00,VWS V14.01,2013-09-30 12:23:00,
2013-09-30 08:28:00,46.3,46.0,30.09,NNW,343,0.0,0.0,99,0.00,,,0.00,VWS V14.01,2013-09-30 12:28:00,
2013-09-30 08:33:00,47.2,46.9,30.08,NNW,343,0.0,0.0,99,0.00,,,0.00,VWS V14.01,2013-09-30 12:33:00,
2013-09-30 08:38:00,48.2,47.9,30.08,NNW,343,0.0,0.0,99,0.00,,,0.00,VWS V14.01,2013-09-30 12:38:00,
2013-09-30 08:43:00,49.3,49.0,30.08,NNW,343,0.0,0.0,99,0.00,,,0.00,VWS V14.01,2013-09-30 12:43:00,
2013-09-30 08:49:00,49.9,49.6,30.08,NNW,336,0.0,2.0,99,0.00,,,0.00,VWS V14.01,2013-09-30 12:49:00,
2013-09-30 08:54:00,50.4,50.1,30.08,NNW,336,0.0,2.0,99,0.00,,,0.00,VWS V14.01,2013-09-30 12:54:00,
2013-09-30 08:59:00,51.2,51.2,30.08,NNW,336,0.0,2.0,100,0.00,,,0.00,VWS V14.01,2013-09-30 12:59:00,
2013-09-30 09:04:00,52.1,51.8,30.07,NNW,336,0.0,0.0,99,0.00,,,0.00,VWS V14.01,2013-09-30 13:04:00,
2013-09-30 09:09:00,52.9,52.6,30.07,NNW,336,0.0,0.0,99,0.00,,,0.00,VWS V14.01,2013-09-30 13:09:00,
2013-09-30 09:14:00,53.6,53.6,30.07,NNW,336,0.0,1.0,100,0.00,,,0.00,VWS V14.01,2013-09-30 13:14:00,
2013-09-30 09:19:00,54.8,54.8,30.07,NNW,336,0.0,1.0,100,0.00,,,0.00,VWS V14.01,2013-09-30 13:19:00,
2013-09-30 09:24:00,55.8,55.5,30.07,NNW,336,0.0,1.0,99,0.00,,,0.00,VWS V14.01,2013-09-30 13:24:00,
2013-09-30 09:29:00,56.6,56.0,30.07,NNW,336,0.0,1.0,98,0.00,,,0.00,VWS V14.01,2013-09-30 13:29:00,
2013-09-30 09:35:00,57.0,55.3,30.06,NNW,336,0.0,0.0,94,0.00,,,0.00,VWS V14.01,2013-09-30 13:35:00,
2013-09-30 09:40:00,57.3,55.3,30.06,NNW,330,0.0,2.0,93,0.00,,,0.00,VWS V14.01,2013-09-30 13:40:00,
2013-09-30 09:45:00,57.6,55.3,30.06,SW,236,2.0,2.0,92,0.00,,,0.00,VWS V14.01,2013-09-30 13:45:00,
2013-09-30 09:50:00,58.2,55.3,30.06,SW,234,0.0,2.0,90,0.00,,,0.00,VWS V14.01,2013-09-30 13:50:00,
2013-09-30 09:55:00,58.9,56.0,30.06,SW,234,0.0,2.0,90,0.00,,,0.00,VWS V14.01,2013-09-30 13:55:00,
2013-09-30 10:00:00,59.6,56.4,30.06,SW,234,0.0,0.0,89,0.00,,,0.00,VWS V14.01,2013-09-30 14:00:00,
2013-09-30 10:05:00,60.5,56.9,30.06,SW,234,0.0,1.0,88,0.00,,,0.00,VWS V14.01,2013-09-30 14:05:00,
2013-09-30 10:10:00,61.2,56.3,30.06,WSW,240,0.0,4.0,84,0.00,,,0.00,VWS V14.01,2013-09-30 14:10:00,
2013-09-30 10:16:00,61.8,56.6,30.05,SW,218,0.0,4.0,83,0.00,,,0.00,VWS V14.01,2013-09-30 14:16:00,
2013-09-30 10:21:00,62.4,56.8,30.05,SSW,206,0.0,4.0,82,0.00,,,0.00,VWS V14.01,2013-09-30 14:21:00,
2013-09-30 10:26:00,63.0,57.4,30.05,SSE,150,0.0,4.0,82,0.00,,,0.00,VWS V14.01,2013-09-30 14:26:00,
2013-09-30 10:31:00,63.7,57.8,30.06,SE,146,0.0,1.0,81,0.00,,,0.00,VWS V14.01,2013-09-30 14:31:00,
2013-09-30 10:36:00,64.6,58.0,30.06,SSW,194,0.0,2.0,79,0.00,,,0.00,VWS V14.01,2013-09-30 14:36:00,
2013-09-30 10:41:00,65.4,58.0,30.05,SE,136,0.0,2.0,77,0.00,,,0.00,VWS V14.01,2013-09-30 14:41:00,
2013-09-30 10:46:00,65.9,58.5,30.05,South,180,2.0,5.0,77,0.00,,,0.00,VWS V14.01,2013-09-30 14:46:00,
2013-09-30 10:51:00,66.1,57.6,30.05,SW,221,0.0,5.0,74,0.00,,,0.00,VWS V14.01,2013-09-30 14:51:00,
2013-09-30 10:56:00,66.5,58.0,30.05,SE,134,0.0,5.0,74,0.00,,,0.00,VWS V14.01,2013-09-30 14:56:00,
2013-09-30 11:02:00,66.9,58.7,30.05,South,174,2.0,2.0,75,0.00,,,0.00,VWS V14.01,2013-09-30 15:02:00,
2013-09-30 11:07:00,66.9,56.8,30.05,SSW,192,0.0,2.0,70,0.00,,,0.00,VWS V14.01,2013-09-30 15:07:00,
2013-09-30 11:12:00,66.8,55.9,30.05,SW,235,0.0,4.0,68,0.00,,,0.00,VWS V14.01,2013-09-30 15:12:00,
2013-09-30 11:17:00,66.5,56.0,30.05,East,92,0.0,4.0,69,0.00,,,0.00,VWS V14.01,2013-09-30 15:17:00,
2013-09-30 11:22:00,66.5,57.6,30.05,SE,146,1.0,5.0,73,0.00,,,0.00,VWS V14.01,2013-09-30 15:22:00,
2013-09-30 11:27:00,66.6,55.3,30.04,SE,141,0.0,5.0,67,0.00,,,0.00,VWS V14.01,2013-09-30 15:27:00,
2013-09-30 11:32:00,66.7,55.8,30.04,South,185,0.0,5.0,68,0.00,,,0.00,VWS V14.01,2013-09-30 15:32:00,
2013-09-30 11:37:00,66.7,54.2,30.04,East,100,0.0,6.0,64,0.00,,,0.00,VWS V14.01,2013-09-30 15:37:00,
2013-09-30 11:43:00,66.7,55.4,30.03,SSE,150,0.0,6.0,67,0.00,,,0.00,VWS V14.01,2013-09-30 15:43:00,
2013-09-30 11:48:00,67.0,56.9,30.03,SSE,158,0.0,6.0,70,0.00,,,0.00,VWS V14.01,2013-09-30 15:48:00,
2013-09-30 11:53:00,67.2,57.5,30.03,WSW,242,1.0,6.0,71,0.00,,,0.00,VWS V14.01,2013-09-30 15:53:00,
2013-09-30 11:58:00,67.6,57.5,30.03,WSW,242,1.0,6.0,70,0.00,,,0.00,VWS V14.01,2013-09-30 15:58:00,
2013-09-30 12:03:00,67.7,55.1,30.03,ESE,122,1.0,4.0,64,0.00,,,0.00,VWS V14.01,2013-09-30 16:03:00,
2013-09-30 12:08:00,67.7,54.2,30.03,NNW,346,1.0,5.0,62,0.00,,,0.00,VWS V14.01,2013-09-30 16:08:00,
2013-09-30 12:13:00,67.9,53.5,30.02,NNW,340,0.0,5.0,60,0.00,,,0.00,VWS V14.01,2013-09-30 16:13:00,
2013-09-30 12:18:00,67.6,54.1,30.02,NNE,24,0.0,5.0,62,0.00,,,0.00,VWS V14.01,2013-09-30 16:18:00,
2013-09-30 12:23:00,67.3,53.4,30.02,NNE,24,0.0,5.0,61,0.00,,,0.00,VWS V14.01,2013-09-30 16:23:00,
2013-09-30 12:29:00,67.2,54.6,30.01,NE,40,0.0,5.0,64,0.00,,,0.00,VWS V14.01,2013-09-30 16:29:00,
2013-09-30 12:34:00,67.4,55.7,30.01,ESE,105,0.0,4.0,66,0.00,,,0.00,VWS V14.01,2013-09-30 16:34:00,
2013-09-30 12:39:00,67.6,54.6,30.01,NW,316,0.0,5.0,63,0.00,,,0.00,VWS V14.01,2013-09-30 16:39:00,
2013-09-30 12:44:00,67.7,54.7,30.01,SW,232,1.0,5.0,63,0.00,,,0.00,VWS V14.01,2013-09-30 16:44:00,
2013-09-30 12:49:00,67.5,55.3,30.01,SSW,209,0.0,5.0,65,0.00,,,0.00,VWS V14.01,2013-09-30 16:49:00,
2013-09-30 12:54:00,67.7,55.1,30.00,SSE,152,0.0,5.0,64,0.00,,,0.00,VWS V14.01,2013-09-30 16:54:00,
2013-09-30 12:59:00,67.9,55.3,30.00,SSE,152,0.0,5.0,64,0.00,,,0.00,VWS V14.01,2013-09-30 16:59:00,
2013-09-30 13:04:00,68.2,55.6,30.00,East,84,0.0,3.0,64,0.00,,,0.00,VWS V14.01,2013-09-30 17:04:00,
2013-09-30 13:10:00,68.7,56.5,30.00,East,85,0.0,3.0,65,0.00,,,0.00,VWS V14.01,2013-09-30 17:10:00,
2013-09-30 13:15:00,69.2,54.7,30.00,North,5,2.0,7.0,60,0.00,,,0.00,VWS V14.01,2013-09-30 17:15:00,
2013-09-30 13:20:00,69.4,54.0,30.00,SE,126,4.0,7.0,58,0.00,,,0.00,VWS V14.01,2013-09-30 17:20:00,
2013-09-30 13:25:00,69.6,53.7,30.00,NW,319,2.0,7.0,57,0.00,,,0.00,VWS V14.01,2013-09-30 17:25:00,
2013-09-30 13:30:00,69.4,54.5,30.00,NW,318,0.0,7.0,59,0.00,,,0.00,VWS V14.01,2013-09-30 17:30:00,
2013-09-30 13:35:00,69.1,56.0,29.99,NW,318,0.0,0.0,63,0.00,,,0.00,VWS V14.01,2013-09-30 17:35:00,
2013-09-30 13:40:00,69.0,57.2,30.00,NW,318,0.0,1.0,66,0.00,,,0.00,VWS V14.01,2013-09-30 17:40:00,
2013-09-30 13:45:00,69.3,56.6,29.99,SSE,157,0.0,3.0,64,0.00,,,0.00,VWS V14.01,2013-09-30 17:45:00,
2013-09-30 13:50:00,70.0,55.5,29.99,SSW,205,1.0,3.0,60,0.00,,,0.00,VWS V14.01,2013-09-30 17:50:00,
2013-09-30 13:55:00,70.5,55.0,30.00,SE,141,0.0,3.0,58,0.00,,,0.00,VWS V14.01,2013-09-30 17:55:00,
2013-09-30 14:01:00,70.5,54.5,30.00,NNW,342,2.0,3.0,57,0.00,,,0.00,VWS V14.01,2013-09-30 18:01:00,
2013-09-30 14:06:00,70.2,55.2,29.99,NNW,338,0.0,3.0,59,0.00,,,0.00,VWS V14.01,2013-09-30 18:06:00,
2013-09-30 14:11:00,69.9,57.6,29.99,NNW,338,0.0,3.0,65,0.00,,,0.00,VWS V14.01,2013-09-30 18:11:00,
2013-09-30 14:16:00,69.5,58.1,29.99,NNW,338,0.0,3.0,67,0.00,,,0.00,VWS V14.01,2013-09-30 18:16:00,
2013-09-30 14:21:00,69.1,58.9,29.99,NNW,338,0.0,3.0,70,0.00,,,0.00,VWS V14.01,2013-09-30 18:21:00,
2013-09-30 14:26:00,69.1,58.5,29.99,NNW,338,0.0,3.0,69,0.00,,,0.00,VWS V14.01,2013-09-30 18:26:00,
2013-09-30 14:31:00,69.5,58.5,29.99,NNW,338,0.0,1.0,68,0.00,,,0.00,VWS V14.01,2013-09-30 18:31:00,
2013-09-30 14:36:00,70.2,58.7,29.99,ESE,118,0.0,3.0,67,0.00,,,0.00,VWS V14.01,2013-09-30 18:36:00,
2013-09-30 14:41:00,70.8,56.7,29.99,ESE,118,0.0,3.0,61,0.00,,,0.00,VWS V14.01,2013-09-30 18:41:00,
2013-09-30 14:46:00,71.0,55.0,29.99,North,355,2.0,3.0,57,0.00,,,0.00,VWS V14.01,2013-09-30 18:46:00,
2013-09-30 14:52:00,70.6,56.1,29.99,NNW,346,1.0,3.0,60,0.00,,,0.00,VWS V14.01,2013-09-30 18:52:00,
2013-09-30 14:57:00,69.9,57.6,29.98,NNW,346,0.0,3.0,65,0.00,,,0.00,VWS V14.01,2013-09-30 18:57:00,
2013-09-30 15:02:00,69.0,56.8,29.98,NNW,346,0.0,0.0,65,0.00,,,0.00,VWS V14.01,2013-09-30 19:02:00,
2013-09-30 15:07:00,68.3,55.7,29.98,NNW,346,0.0,0.0,64,0.00,,,0.00,VWS V14.01,2013-09-30 19:07:00,
2013-09-30 15:12:00,68.1,53.2,29.98,NNW,346,0.0,0.0,59,0.00,,,0.00,VWS V14.01,2013-09-30 19:12:00,
2013-09-30 15:17:00,68.6,56.8,29.98,North,351,0.0,1.0,66,0.00,,,0.00,VWS V14.01,2013-09-30 19:17:00,
2013-09-30 15:22:00,69.0,53.6,29.98,North,351,0.0,1.0,58,0.00,,,0.00,VWS V14.01,2013-09-30 19:22:00,
2013-09-30 15:27:00,69.6,55.6,29.98,SW,224,0.0,2.0,61,0.00,,,0.00,VWS V14.01,2013-09-30 19:27:00,
2013-09-30 15:32:00,70.0,55.0,29.97,SSE,168,0.0,2.0,59,0.00,,,0.00,VWS V14.01,2013-09-30 19:32:00,
2013-09-30 15:37:00,70.2,56.1,29.97,South,169,0.0,2.0,61,0.00,,,0.00,VWS V14.01,2013-09-30 19:37:00,
2013-09-30 15:43:00,70.2,54.8,29.97,West,279,1.0,2.0,58,0.00,,,0.00,VWS V14.01,2013-09-30 19:43:00,
2013-09-30 15:48:00,70.0,54.1,29.97,North,355,1.0,4.0,57,0.00,,,0.00,VWS V14.01,2013-09-30 19:48:00,
2013-09-30 15:53:00,69.7,54.8,29.97,North,350,0.0,4.0,59,0.00,,,0.00,VWS V14.01,2013-09-30 19:53:00,
2013-09-30 15:58:00,69.6,54.2,29.97,North,351,0.0,4.0,58,0.00,,,0.00,VWS V14.01,2013-09-30 19:58:00,
2013-09-30 16:03:00,69.5,55.5,29.97,North,351,0.0,0.0,61,0.00,,,0.00,VWS V14.01,2013-09-30 20:03:00,
2013-09-30 16:08:00,69.2,53.3,29.97,North,355,0.0,3.0,57,0.00,,,0.00,VWS V14.01,2013-09-30 20:08:00,
2013-09-30 16:13:00,69.1,55.5,29.97,North,355,0.0,3.0,62,0.00,,,0.00,VWS V14.01,2013-09-30 20:13:00,
2013-09-30 16:18:00,68.8,54.4,29.97,North,355,0.0,3.0,60,0.00,,,0.00,VWS V14.01,2013-09-30 20:18:00,
2013-09-30 16:23:00,68.6,54.2,29.96,North,355,0.0,3.0,60,0.00,,,0.00,VWS V14.01,2013-09-30 20:23:00,
2013-09-30 16:28:00,68.6,53.7,29.96,North,355,0.0,3.0,59,0.00,,,0.00,VWS V14.01,2013-09-30 20:28:00,
2013-09-30 16:33:00,68.5,55.0,29.96,North,355,0.0,1.0,62,0.00,,,0.00,VWS V14.01,2013-09-30 20:33:00,
2013-09-30 16:38:00,68.3,56.1,29.96,North,355,0.0,2.0,65,0.00,,,0.00,VWS V14.01,2013-09-30 20:38:00,
2013-09-30 16:43:00,67.9,54.4,29.96,North,355,0.0,2.0,62,0.00,,,0.00,VWS V14.01,2013-09-30 20:43:00,
2013-09-30 16:48:00,67.5,55.3,29.96,North,355,0.0,2.0,65,0.00,,,0.00,VWS V14.01,2013-09-30 20:48:00,
2013-09-30 16:53:00,67.1,55.0,29.96,North,355,1.0,2.0,65,0.00,,,0.00,VWS V14.01,2013-09-30 20:53:00,
2013-09-30 16:59:00,66.7,55.4,29.96,North,355,0.0,2.0,67,0.00,,,0.00,VWS V14.01,2013-09-30 20:59:00,
2013-09-30 17:04:00,66.2,55.7,29.96,North,355,0.0,0.0,69,0.00,,,0.00,VWS V14.01,2013-09-30 21:04:00,
2013-09-30 17:09:00,65.7,55.3,29.96,North,355,0.0,1.0,69,0.00,,,0.00,VWS V14.01,2013-09-30 21:09:00,
2013-09-30 17:14:00,65.3,55.3,29.96,North,355,0.0,1.0,70,0.00,,,0.00,VWS V14.01,2013-09-30 21:14:00,
2013-09-30 17:19:00,64.9,55.3,29.96,North,355,0.0,1.0,71,0.00,,,0.00,VWS V14.01,2013-09-30 21:19:00,
2013-09-30 17:24:00,64.5,54.9,29.96,North,355,0.0,2.0,71,0.00,,,0.00,VWS V14.01,2013-09-30 21:24:00,
2013-09-30 17:29:00,64.2,55.8,29.96,North,355,0.0,2.0,74,0.00,,,0.00,VWS V14.01,2013-09-30 21:29:00,
2013-09-30 17:34:00,63.9,55.5,29.96,North,355,0.0,0.0,74,0.00,,,0.00,VWS V14.01,2013-09-30 21:34:00,
2013-09-30 17:40:00,63.5,55.4,29.96,North,355,0.0,1.0,75,0.00,,,0.00,VWS V14.01,2013-09-30 21:40:00,
2013-09-30 17:45:00,63.1,55.4,29.96,North,355,0.0,1.0,76,0.00,,,0.00,VWS V14.01,2013-09-30 21:45:00,
2013-09-30 17:50:00,62.8,56.2,29.96,North,355,0.0,1.0,79,0.00,,,0.00,VWS V14.01,2013-09-30 21:50:00,
2013-09-30 17:55:00,62.4,56.2,29.96,North,355,0.0,1.0,80,0.00,,,0.00,VWS V14.01,2013-09-30 21:55:00,
2013-09-30 18:00:00,61.9,56.0,29.96,North,355,0.0,0.0,81,0.00,,,0.00,VWS V14.01,2013-09-30 22:00:00,
2013-09-30 18:05:00,61.5,56.0,29.97,North,355,0.0,0.0,82,0.00,,,0.00,VWS V14.01,2013-09-30 22:05:00,
2013-09-30 18:10:00,61.1,55.9,29.97,North,355,0.0,0.0,83,0.00,,,0.00,VWS V14.01,2013-09-30 22:10:00,
2013-09-30 18:15:00,60.7,55.8,29.97,North,355,0.0,0.0,84,0.00,,,0.00,VWS V14.01,2013-09-30 22:15:00,
2013-09-30 18:20:00,60.3,55.8,29.97,North,355,0.0,0.0,85,0.00,,,0.00,VWS V14.01,2013-09-30 22:20:00,
2013-09-30 18:26:00,59.8,55.3,29.97,North,355,0.0,0.0,85,0.00,,,0.00,VWS V14.01,2013-09-30 22:26:00,
2013-09-30 18:31:00,59.5,55.3,29.97,North,355,0.0,0.0,86,0.00,,,0.00,VWS V14.01,2013-09-30 22:31:00,
2013-09-30 18:36:00,59.1,55.2,29.97,North,355,0.0,0.0,87,0.00,,,0.00,VWS V14.01,2013-09-30 22:36:00,
2013-09-30 18:41:00,58.7,55.2,29.97,North,355,0.0,0.0,88,0.00,,,0.00,VWS V14.01,2013-09-30 22:41:00,
2013-09-30 18:46:00,58.3,54.8,29.97,North,355,0.0,0.0,88,0.00,,,0.00,VWS V14.01,2013-09-30 22:46:00,
2013-09-30 18:51:00,57.9,54.7,29.97,North,355,0.0,0.0,89,0.00,,,0.00,VWS V14.01,2013-09-30 22:51:00,
2013-09-30 18:56:00,57.5,54.3,29.97,North,355,0.0,0.0,89,0.00,,,0.00,VWS V14.01,2013-09-30 22:56:00,
2013-09-30 19:01:00,57.2,54.3,29.97,North,355,0.0,0.0,90,0.00,,,0.00,VWS V14.01,2013-09-30 23:01:00,
2013-09-30 19:07:00,56.9,54.0,29.97,North,355,0.0,0.0,90,0.00,,,0.00,VWS V14.01,2013-09-30 23:07:00,
2013-09-30 19:12:00,56.6,54.0,29.97,North,355,0.0,0.0,91,0.00,,,0.00,VWS V14.01,2013-09-30 23:12:00,
2013-09-30 19:17:00,56.2,53.6,29.97,North,355,0.0,0.0,91,0.00,,,0.00,VWS V14.01,2013-09-30 23:17:00,
2013-09-30 19:22:00,55.9,53.6,29.97,North,355,0.0,0.0,92,0.00,,,0.00,VWS V14.01,2013-09-30 23:22:00,
2013-09-30 19:27:00,55.7,53.4,29.97,North,355,0.0,0.0,92,0.00,,,0.00,VWS V14.01,2013-09-30 23:27:00,
2013-09-30 19:32:00,55.4,53.1,29.98,North,355,0.0,0.0,92,0.00,,,0.00,VWS V14.01,2013-09-30 23:32:00,
2013-09-30 19:37:00,55.1,53.1,29.98,North,355,0.0,0.0,93,0.00,,,0.00,VWS V14.01,2013-09-30 23:37:00,
2013-09-30 19:42:00,54.9,52.9,29.98,North,355,0.0,0.0,93,0.00,,,0.00,VWS V14.01,2013-09-30 23:42:00,
2013-09-30 19:48:00,54.6,52.6,29.98,North,355,0.0,0.0,93,0.00,,,0.00,VWS V14.01,2013-09-30 23:48:00,
2013-09-30 19:53:00,54.4,52.4,29.98,North,355,0.0,0.0,93,0.00,,,0.00,VWS V14.01,2013-09-30 23:53:00,
2013-09-30 19:58:00,54.2,52.5,29.98,North,355,0.0,0.0,94,0.00,,,0.00,VWS V14.01,2013-09-30 23:58:00,
2013-09-30 20:03:00,54.1,52.4,29.98,North,355,0.0,0.0,94,0.00,,,0.00,VWS V14.01,2013-10-01 00:03:00,
2013-09-30 20:08:00,53.9,52.5,29.98,North,355,0.0,0.0,95,0.00,,,0.00,VWS V14.01,2013-10-01 00:08:00,
2013-09-30 20:13:00,53.7,52.3,29.98,North,355,0.0,0.0,95,0.00,,,0.00,VWS V14.01,2013-10-01 00:13:00,
2013-09-30 20:18:00,53.6,52.2,29.99,North,355,0.0,0.0,95,0.00,,,0.00,VWS V14.01,2013-10-01 00:18:00,
2013-09-30 20:23:00,53.3,51.9,29.99,North,355,0.0,0.0,95,0.00,,,0.00,VWS V14.01,2013-10-01 00:23:00,
2013-09-30 20:28:00,53.2,51.8,29.99,North,355,0.0,0.0,95,0.00,,,0.00,VWS V14.01,2013-10-01 00:28:00,
2013-09-30 20:34:00,53.0,51.6,29.99,North,355,0.0,0.0,95,0.00,,,0.00,VWS V14.01,2013-10-01 00:34:00,
2013-09-30 20:39:00,52.9,51.5,29.99,North,355,0.0,0.0,95,0.00,,,0.00,VWS V14.01,2013-10-01 00:39:00,
2013-09-30 20:44:00,52.7,51.3,29.98,North,355,0.0,0.0,95,0.00,,,0.00,VWS V14.01,2013-10-01 00:44:00,
2013-09-30 20:49:00,52.5,51.1,29.98,North,355,0.0,0.0,95,0.00,,,0.00,VWS V14.01,2013-10-01 00:49:00,
2013-09-30 20:54:00,52.4,51.0,29.98,North,355,0.0,0.0,95,0.00,,,0.00,VWS V14.01,2013-10-01 00:54:00,
2013-09-30 20:59:00,52.2,51.1,29.98,North,355,0.0,0.0,96,0.00,,,0.00,VWS V14.01,2013-10-01 00:59:00,
2013-09-30 21:04:00,52.0,50.9,29.99,North,355,0.0,0.0,96,0.00,,,0.00,VWS V14.01,2013-10-01 01:04:00,
2013-09-30 21:09:00,51.9,50.8,29.99,North,355,0.0,0.0,96,0.00,,,0.00,VWS V14.01,2013-10-01 01:09:00,
2013-09-30 21:15:00,51.8,50.7,29.99,North,355,0.0,0.0,96,0.00,,,0.00,VWS V14.01,2013-10-01 01:15:00,
2013-09-30 21:20:00,51.8,50.7,29.99,North,355,0.0,0.0,96,0.00,,,0.00,VWS V14.01,2013-10-01 01:20:00,
2013-09-30 21:25:00,51.7,50.6,29.99,North,355,0.0,0.0,96,0.00,,,0.00,VWS V14.01,2013-10-01 01:25:00,
2013-09-30 21:30:00,51.5,50.4,29.99,North,355,0.0,0.0,96,0.00,,,0.00,VWS V14.01,2013-10-01 01:30:00,
2013-09-30 21:35:00,51.4,50.3,29.99,North,355,0.0,0.0,96,0.00,,,0.00,VWS V14.01,2013-10-01 01:35:00,
2013-09-30 21:40:00,51.2,50.1,29.99,North,355,0.0,0.0,96,0.00,,,0.00,VWS V14.01,2013-10-01 01:40:00,
2013-09-30 21:45:00,51.1,50.0,29.99,North,355,0.0,0.0,96,0.00,,,0.00,VWS V14.01,2013-10-01 01:45:00,
2013-09-30 21:50:00,50.9,49.8,29.99,North,355,0.0,0.0,96,0.00,,,0.00,VWS V14.01,2013-10-01 01:50:00,
2013-09-30 21:55:00,50.8,49.7,29.99,North,355,0.0,0.0,96,0.00,,,0.00,VWS V14.01,2013-10-01 01:55:00,
2013-09-30 22:00:00,50.7,49.9,29.99,North,355,0.0,0.0,97,0.00,,,0.00,VWS V14.01,2013-10-01 02:00:00,
2013-09-30 22:06:00,50.7,49.9,29.99,North,355,0.0,0.0,97,0.00,,,0.00,VWS V14.01,2013-10-01 02:06:00,
2013-09-30 22:11:00,50.5,49.7,29.99,North,355,0.0,0.0,97,0.00,,,0.00,VWS V14.01,2013-10-01 02:11:00,
2013-09-30 22:16:00,50.4,49.6,29.99,North,355,0.0,0.0,97,0.00,,,0.00,VWS V14.01,2013-10-01 02:16:00,
2013-09-30 22:21:00,50.3,49.5,29.99,North,355,0.0,0.0,97,0.00,,,0.00,VWS V14.01,2013-10-01 02:21:00,
2013-09-30 22:26:00,50.3,49.5,29.99,North,355,0.0,0.0,97,0.00,,,0.00,VWS V14.01,2013-10-01 02:26:00,
2013-09-30 22:31:00,50.1,49.3,29.99,North,355,0.0,0.0,97,0.00,,,0.00,VWS V14.01,2013-10-01 02:31:00,
2013-09-30 22:36:00,49.9,49.9,29.99,North,355,0.0,0.0,100,0.00,,,0.00,VWS V14.01,2013-10-01 02:36:00,
2013-09-30 22:41:00,49.8,49.0,29.99,North,355,0.0,0.0,97,0.00,,,0.00,VWS V14.01,2013-10-01 02:41:00,
2013-09-30 22:46:00,49.7,48.9,29.99,North,355,0.0,1.0,97,0.00,,,0.00,VWS V14.01,2013-10-01 02:46:00,
2013-09-30 22:52:00,49.6,48.8,29.99,North,355,0.0,1.0,97,0.00,,,0.00,VWS V14.01,2013-10-01 02:52:00,
2013-09-30 22:57:00,49.5,48.7,29.99,North,355,0.0,1.0,97,0.00,,,0.00,VWS V14.01,2013-10-01 02:57:00,
2013-09-30 23:02:00,49.4,48.6,29.99,North,355,0.0,0.0,97,0.00,,,0.00,VWS V14.01,2013-10-01 03:02:00,
2013-09-30 23:07:00,49.3,48.5,29.99,North,355,0.0,0.0,97,0.00,,,0.00,VWS V14.01,2013-10-01 03:07:00,
2013-09-30 23:12:00,49.2,48.4,29.99,North,355,0.0,0.0,97,0.00,,,0.00,VWS V14.01,2013-10-01 03:12:00,
2013-09-30 23:17:00,49.2,48.4,29.99,North,355,0.0,0.0,97,0.00,,,0.00,VWS V14.01,2013-10-01 03:17:00,
2013-09-30 23:22:00,49.1,48.3,29.99,North,355,0.0,0.0,97,0.00,,,0.00,VWS V14.01,2013-10-01 03:22:00,
2013-09-30 23:27:00,49.0,48.2,29.99,North,355,0.0,0.0,97,0.00,,,0.00,VWS V14.01,2013-10-01 03:27:00,
2013-09-30 23:32:00,48.9,48.1,29.99,North,355,0.0,0.0,97,0.00,,,0.00,VWS V14.01,2013-10-01 03:32:00,
2013-09-30 23:38:00,48.8,48.0,29.99,North,355,0.0,0.0,97,0.00,,,0.00,VWS V14.01,2013-10-01 03:38:00,
2013-09-30 23:43:00,48.8,48.0,29.99,North,355,0.0,0.0,97,0.00,,,0.00,VWS V14.01,2013-10-01 03:43:00,
2013-09-30 23:48:00,48.8,48.0,29.99,North,355,0.0,0.0,97,0.00,,,0.00,VWS V14.01,2013-10-01 03:48:00,
2013-09-30 23:53:00,48.7,47.9,29.99,North,355,0.0,0.0,97,0.00,,,0.00,VWS V14.01,2013-10-01 03:53:00,
2013-09-30 23:58:00,48.6,47.8,29.99,North,355,0.0,0.0,97,0.00,,,0.00,VWS V14.01,2013-10-01 03:58:00,